18:37
Airports
History
Links
Donate
Help keep this website running!
PayPal
Bitcoin
Information on this page is community maintained and may be outdated or inaccurate and is intended for reference only or PC simulator navigating.
Always use approved charts for navigating.
LIEE
Cagliari Elmas
Cagliari Elmas (LIEE)
Cagliari, Sardegna, Italy (9122)
(C)
Lat/Lng:39° 15' 5.31" N / 9° 3' 15.45" E
39.251475 / 9.054291
Elevation:13'ft 4mMSL
ID / ICAO:LIEE
Runways:1
Longest:(14-32) 2,784.2m 9,135ft Asphalt
Controlled:Yes
Distance To
Airport ID:
Airport Radio Frequencies
Ground: 121.6
Tower: 120.6, 122.1
Approach: 118.4, 118.75
Nearby VORs <50NM
Nearby NDBs
METARUpdated 07-20-17 18:20 GMT
Altimeter: 29.85
Visibility: 6.2 statute miles
Wind: 13 knots (160°)
Temp: 26°c 79°f
Humidity: 78.7%

METAR: LIEE 201820Z 16013KT 9999 FEW030 26/22 Q1011

(Powered by phpweather)
Runway 14 / 32
Dimensions:2784.2 x 45.1m 9135' x 148'ft
Surface:Asphalt
Edge Lights:Medium intensity
Runway 14 [A]Runway 32 [B]
Heading:138°TH 318°TH
Lat:
Lng:
39° 15' 38.92"N
9° 2' 36.48"E
39° 14' 31.7"N
9° 3' 54.41"E
ALS:ALSF-I
TDZ:Yes, lighted
User Notes and Comments
Google Map
Nearby Airports
(C) DECIMOMANNU 8.3 NM
LIED (WX) NNW 328°
(U) Oristano Fenosu 49.5 NM
LIER NNW 333°
(C) TORTOLI 57.0 NM
LIET NE 35°
(C) ALGHERO 103.6 NM
LIEA (WX) NNW 337°
(C) OLBIA COSTA SMERALDA 116.4 NM
LIEO (WX) NNE 12°
(U) SIDI AHMED AIR BASE 144.2 NM
DTTB SSE 163°
(C) Cavallo 146.6 NM
2051 N
VFR Chart
Flight Planning at SkyVector.com